createdAt,value
2023-02-14T00:00:20.979Z,1032.67
2023-02-14T00:01:20.985Z,1032.68
2023-02-14T00:02:20.969Z,1032.67
2023-02-14T00:03:20.973Z,1032.67
2023-02-14T00:04:20.980Z,1032.66
2023-02-14T00:05:21.005Z,1032.68
2023-02-14T00:06:20.928Z,1032.66
2023-02-14T00:07:20.975Z,1032.69
2023-02-14T00:08:20.943Z,1032.64
2023-02-14T00:09:20.921Z,1032.67
2023-02-14T00:10:20.905Z,1032.58
2023-02-14T00:11:20.857Z,1032.63
2023-02-14T00:12:20.815Z,1032.63
2023-02-14T00:13:20.874Z,1032.65
2023-02-14T00:14:20.826Z,1032.65
2023-02-14T00:15:20.778Z,1032.67
2023-02-14T00:16:20.774Z,1032.65
2023-02-14T00:17:20.792Z,1032.60
2023-02-14T00:18:20.756Z,1032.68
2023-02-14T00:19:20.757Z,1032.64
2023-02-14T00:20:20.706Z,1032.66
2023-02-14T00:21:20.732Z,1032.65
2023-02-14T00:22:20.712Z,1032.60
2023-02-14T00:23:20.702Z,1032.63
2023-02-14T00:24:20.674Z,1032.57
2023-02-14T00:25:20.652Z,1032.58
2023-02-14T00:26:20.667Z,1032.56
2023-02-14T00:27:20.661Z,1032.55
2023-02-14T00:28:20.604Z,1032.56
2023-02-14T00:29:20.754Z,1032.57
2023-02-14T00:30:20.634Z,1032.56
2023-02-14T00:31:20.830Z,1032.54
2023-02-14T00:32:20.588Z,1032.54
2023-02-14T00:33:20.652Z,1032.52
2023-02-14T00:34:20.534Z,1032.56
2023-02-14T00:35:20.611Z,1032.59
2023-02-14T00:36:20.543Z,1032.56
2023-02-14T00:37:20.557Z,1032.59
2023-02-14T00:38:20.472Z,1032.54
2023-02-14T00:39:20.525Z,1032.54
2023-02-14T00:40:20.493Z,1032.50
2023-02-14T00:41:20.458Z,1032.50
2023-02-14T00:42:20.455Z,1032.54
2023-02-14T00:43:20.421Z,1032.46
2023-02-14T00:44:20.404Z,1032.53
2023-02-14T00:45:20.424Z,1032.47
2023-02-14T00:46:20.479Z,1032.39
2023-02-14T00:47:20.413Z,1032.40
2023-02-14T00:48:20.350Z,1032.38
2023-02-14T00:49:20.389Z,1032.43
2023-02-14T00:50:20.367Z,1032.39
2023-02-14T00:51:20.369Z,1032.47
2023-02-14T00:52:20.327Z,1032.36
2023-02-14T00:53:20.357Z,1032.37
2023-02-14T00:54:20.334Z,1032.35
2023-02-14T00:55:20.300Z,1032.40
2023-02-14T00:56:20.269Z,1032.45
2023-02-14T00:57:20.239Z,1032.37
2023-02-14T00:58:20.244Z,1032.41
2023-02-14T00:59:20.252Z,1032.42
2023-02-14T01:00:20.228Z,1032.37
2023-02-14T01:01:20.273Z,1032.39
2023-02-14T01:02:20.234Z,1032.42
2023-02-14T01:03:20.243Z,1032.40
2023-02-14T01:04:20.183Z,1032.41
2023-02-14T01:05:20.182Z,1032.34
2023-02-14T01:06:20.127Z,1032.39
2023-02-14T01:07:20.115Z,1032.36
2023-02-14T01:08:20.128Z,1032.40
2023-02-14T01:09:20.103Z,1032.38
2023-02-14T01:10:20.090Z,1032.33
2023-02-14T01:11:20.141Z,1032.37
2023-02-14T01:12:20.083Z,1032.34
2023-02-14T01:13:20.045Z,1032.39
2023-02-14T01:14:20.042Z,1032.42
2023-02-14T01:15:20.025Z,1032.42
2023-02-14T01:16:20.073Z,1032.38
2023-02-14T01:17:20.069Z,1032.41
2023-02-14T01:18:19.968Z,1032.39
2023-02-14T01:19:19.994Z,1032.41
2023-02-14T01:20:19.934Z,1032.40
2023-02-14T01:21:19.955Z,1032.38
2023-02-14T01:22:19.915Z,1032.41
2023-02-14T01:23:19.923Z,1032.39
2023-02-14T01:24:19.883Z,1032.40
2023-02-14T01:25:19.949Z,1032.33
2023-02-14T01:26:19.906Z,1032.37
2023-02-14T01:27:19.882Z,1032.36
2023-02-14T01:28:19.833Z,1032.39
2023-02-14T01:29:19.842Z,1032.37
2023-02-14T01:30:19.931Z,1032.37
2023-02-14T01:31:20.050Z,1032.38
2023-02-14T01:32:20.015Z,1032.39
2023-02-14T01:33:19.799Z,1032.41
2023-02-14T01:34:19.781Z,1032.38
2023-02-14T01:35:19.777Z,1032.41
2023-02-14T01:36:19.766Z,1032.41
2023-02-14T01:37:19.796Z,1032.43
2023-02-14T01:38:19.702Z,1032.38
2023-02-14T01:39:19.738Z,1032.34
2023-02-14T01:40:19.726Z,1032.36
2023-02-14T01:41:19.712Z,1032.37
2023-02-14T01:42:19.688Z,1032.40
2023-02-14T01:43:19.678Z,1032.39
2023-02-14T01:44:19.678Z,1032.36
2023-02-14T01:45:19.694Z,1032.35
2023-02-14T01:46:19.615Z,1032.37
2023-02-14T01:47:19.660Z,1032.35
2023-02-14T01:48:19.620Z,1032.38
2023-02-14T01:49:19.585Z,1032.39
2023-02-14T01:50:19.605Z,1032.40
2023-02-14T01:51:19.563Z,1032.36
2023-02-14T01:52:19.547Z,1032.34
2023-02-14T01:53:19.599Z,1032.35
2023-02-14T01:54:19.510Z,1032.42
2023-02-14T01:55:19.524Z,1032.38
2023-02-14T01:56:19.489Z,1032.36
2023-02-14T01:57:19.545Z,1032.42
2023-02-14T01:58:19.531Z,1032.42
2023-02-14T01:59:19.491Z,1032.44
2023-02-14T02:00:19.499Z,1032.42
2023-02-14T02:01:19.644Z,1032.48
2023-02-14T02:02:19.470Z,1032.44
2023-02-14T02:03:19.424Z,1032.47
2023-02-14T02:04:19.381Z,1032.39
2023-02-14T02:05:19.411Z,1032.41
2023-02-14T02:06:19.362Z,1032.40
2023-02-14T02:07:19.393Z,1032.41
2023-02-14T02:08:19.375Z,1032.40
2023-02-14T02:09:19.374Z,1032.38
2023-02-14T02:10:19.351Z,1032.35
2023-02-14T02:11:19.312Z,1032.37
2023-02-14T02:12:19.308Z,1032.35
2023-02-14T02:13:19.325Z,1032.35
2023-02-14T02:14:19.273Z,1032.31
2023-02-14T02:15:19.314Z,1032.29
2023-02-14T02:16:19.301Z,1032.31
2023-02-14T02:17:19.260Z,1032.29
2023-02-14T02:18:19.267Z,1032.26
2023-02-14T02:19:19.213Z,1032.29
2023-02-14T02:20:19.230Z,1032.27
2023-02-14T02:21:19.224Z,1032.30
2023-02-14T02:22:19.182Z,1032.23
2023-02-14T02:23:19.308Z,1032.27
2023-02-14T02:24:19.176Z,1032.25
2023-02-14T02:25:19.136Z,1032.24
2023-02-14T02:26:19.167Z,1032.31
2023-02-14T02:27:19.131Z,1032.26
2023-02-14T02:28:19.125Z,1032.30
2023-02-14T02:29:19.101Z,1032.27
2023-02-14T02:30:19.164Z,1032.24
2023-02-14T02:31:19.164Z,1032.28
2023-02-14T02:32:19.043Z,1032.27
2023-02-14T02:33:26.641Z,1032.19
2023-02-14T02:34:19.047Z,1032.19
2023-02-14T02:35:19.032Z,1032.16
2023-02-14T02:36:19.021Z,1032.25
2023-02-14T02:37:18.974Z,1032.14
2023-02-14T02:38:18.973Z,1032.17
2023-02-14T02:39:18.943Z,1032.13
2023-02-14T02:40:18.952Z,1032.19
2023-02-14T02:41:18.950Z,1032.21
2023-02-14T02:42:18.953Z,1032.16
2023-02-14T02:43:18.892Z,1032.14
2023-02-14T02:44:18.893Z,1032.14
2023-02-14T02:45:18.883Z,1032.14
2023-02-14T02:46:18.908Z,1032.16
2023-02-14T02:47:18.840Z,1032.16
2023-02-14T02:48:18.832Z,1032.13
2023-02-14T02:49:18.849Z,1032.13
2023-02-14T02:50:18.847Z,1032.08
2023-02-14T02:51:18.791Z,1032.07
2023-02-14T02:52:18.812Z,1032.07
2023-02-14T02:53:18.764Z,1032.06
2023-02-14T02:54:18.760Z,1032.07
2023-02-14T02:55:18.777Z,1032.09
2023-02-14T02:56:18.761Z,1032.09
2023-02-14T02:57:18.717Z,1032.18
2023-02-14T02:58:18.709Z,1032.14
2023-02-14T02:59:18.706Z,1032.09
2023-02-14T03:00:18.707Z,1032.12
2023-02-14T03:01:18.710Z,1032.11
2023-02-14T03:02:18.714Z,1032.20
2023-02-14T03:03:18.644Z,1032.17
2023-02-14T03:04:18.657Z,1032.21
2023-02-14T03:05:18.620Z,1032.17
2023-02-14T03:06:18.643Z,1032.17
2023-02-14T03:07:18.580Z,1032.16
2023-02-14T03:08:18.613Z,1032.22
2023-02-14T03:09:18.604Z,1032.16
2023-02-14T03:10:18.585Z,1032.17
2023-02-14T03:11:18.536Z,1032.19
2023-02-14T03:12:18.574Z,1032.17
2023-02-14T03:13:18.507Z,1032.14
2023-02-14T03:14:18.536Z,1032.17
2023-02-14T03:15:18.518Z,1032.14
2023-02-14T03:16:18.487Z,1032.20
2023-02-14T03:17:18.486Z,1032.19
2023-02-14T03:18:18.482Z,1032.20
2023-02-14T03:19:18.458Z,1032.20
2023-02-14T03:20:18.429Z,1032.18
2023-02-14T03:21:18.422Z,1032.22
2023-02-14T03:22:18.405Z,1032.16
2023-02-14T03:23:18.402Z,1032.19
2023-02-14T03:24:18.403Z,1032.25
2023-02-14T03:25:19.351Z,1032.24
2023-02-14T03:26:18.408Z,1032.19
2023-02-14T03:27:18.328Z,1032.23
2023-02-14T03:28:18.369Z,1032.17
2023-02-14T03:29:18.306Z,1032.14
2023-02-14T03:30:18.349Z,1032.22
2023-02-14T03:31:18.371Z,1032.17
2023-02-14T03:32:18.500Z,1032.20
2023-02-14T03:33:18.282Z,1032.21
2023-02-14T03:34:18.256Z,1032.19
2023-02-14T03:35:18.960Z,1032.21
2023-02-14T03:36:18.242Z,1032.20
2023-02-14T03:37:18.202Z,1032.24
2023-02-14T03:38:18.224Z,1032.20
2023-02-14T03:39:18.199Z,1032.19
2023-02-14T03:40:18.208Z,1032.27
2023-02-14T03:41:18.163Z,1032.26
2023-02-14T03:42:18.174Z,1032.21
2023-02-14T03:43:18.125Z,1032.21
2023-02-14T03:44:18.155Z,1032.26
2023-02-14T03:45:18.164Z,1032.19
2023-02-14T03:46:18.188Z,1032.22
2023-02-14T03:47:18.080Z,1032.30
2023-02-14T03:48:18.071Z,1032.29
2023-02-14T03:49:18.053Z,1032.27
2023-02-14T03:50:18.076Z,1032.24
2023-02-14T03:51:18.056Z,1032.21
2023-02-14T03:52:18.072Z,1032.25
2023-02-14T03:53:18.030Z,1032.25
2023-02-14T03:54:18.008Z,1032.23
2023-02-14T03:55:17.995Z,1032.21
2023-02-14T03:56:18.018Z,1032.18
2023-02-14T03:57:17.948Z,1032.23
2023-02-14T03:58:17.974Z,1032.23
2023-02-14T03:59:17.920Z,1032.21
2023-02-14T04:00:17.927Z,1032.20
2023-02-14T04:01:17.994Z,1032.24
2023-02-14T04:02:17.929Z,1032.24
2023-02-14T04:03:18.866Z,1032.26
2023-02-14T04:04:17.903Z,1032.24
2023-02-14T04:05:17.893Z,1032.25
2023-02-14T04:06:17.865Z,1032.24
2023-02-14T04:07:17.826Z,1032.22
2023-02-14T04:08:17.852Z,1032.23
2023-02-14T04:09:17.813Z,1032.26
2023-02-14T04:10:17.796Z,1032.23
2023-02-14T04:11:17.784Z,1032.18
2023-02-14T04:12:26.537Z,1032.13
2023-02-14T04:13:18.743Z,1032.16
2023-02-14T04:14:17.770Z,1032.13
2023-02-14T04:15:17.780Z,1032.21
2023-02-14T04:16:17.793Z,1032.18
2023-02-14T04:17:17.725Z,1032.21
2023-02-14T04:18:17.729Z,1032.25
2023-02-14T04:19:17.673Z,1032.21
2023-02-14T04:20:17.675Z,1032.19
2023-02-14T04:21:17.699Z,1032.24
2023-02-14T04:22:17.668Z,1032.18
2023-02-14T04:23:17.670Z,1032.21
2023-02-14T04:24:17.613Z,1032.19
2023-02-14T04:25:17.623Z,1032.17
2023-02-14T04:26:17.614Z,1032.16
2023-02-14T04:27:17.586Z,1032.16
2023-02-14T04:28:17.583Z,1032.16
2023-02-14T04:29:17.584Z,1032.10
2023-02-14T04:30:17.621Z,1032.14
2023-02-14T04:31:17.623Z,1032.17
2023-02-14T04:32:17.656Z,1032.12
2023-02-14T04:33:17.494Z,1032.13
2023-02-14T04:34:17.492Z,1032.10
2023-02-14T04:35:17.487Z,1032.12
2023-02-14T04:36:17.479Z,1032.18
2023-02-14T04:37:17.468Z,1032.12
2023-02-14T04:38:17.445Z,1032.14
2023-02-14T04:39:17.444Z,1032.14
2023-02-14T04:40:17.495Z,1032.11
2023-02-14T04:41:17.409Z,1032.13
2023-02-14T04:42:17.401Z,1032.10
2023-02-14T04:43:17.366Z,1032.07
2023-02-14T04:44:17.443Z,1032.06
2023-02-14T04:45:17.337Z,1032.05
2023-02-14T04:46:17.465Z,1032.04
2023-02-14T04:47:17.322Z,1032.05
2023-02-14T04:48:17.349Z,1032.09
2023-02-14T04:49:17.300Z,1032.01
2023-02-14T04:50:17.284Z,1032.05
2023-02-14T04:51:17.290Z,1032.03
2023-02-14T04:52:17.302Z,1032.04
2023-02-14T04:53:17.287Z,1032.08
2023-02-14T04:54:17.277Z,1032.02
2023-02-14T04:55:17.264Z,1032.01
2023-02-14T04:56:17.267Z,1032.00
2023-02-14T04:57:17.249Z,1031.99
2023-02-14T04:58:17.231Z,1031.98
2023-02-14T04:59:17.179Z,1031.96
2023-02-14T05:00:17.176Z,1031.99
2023-02-14T05:01:17.211Z,1031.98
2023-02-14T05:02:18.274Z,1032.02
2023-02-14T05:03:17.102Z,1032.01
2023-02-14T05:04:17.139Z,1032.01
2023-02-14T05:05:17.107Z,1031.99
2023-02-14T05:06:17.088Z,1032.00
2023-02-14T05:07:17.071Z,1031.97
2023-02-14T05:08:17.070Z,1032.02
2023-02-14T05:09:17.055Z,1031.91
2023-02-14T05:10:17.030Z,1031.99
2023-02-14T05:11:17.035Z,1032.01
2023-02-14T05:12:17.048Z,1031.88
2023-02-14T05:13:17.000Z,1031.91
2023-02-14T05:14:16.981Z,1031.88
2023-02-14T05:15:16.958Z,1031.90
2023-02-14T05:16:17.034Z,1031.96
2023-02-14T05:17:16.965Z,1031.89
2023-02-14T05:18:16.943Z,1031.88
2023-02-14T05:19:16.908Z,1031.84
2023-02-14T05:20:16.943Z,1031.94
2023-02-14T05:21:16.931Z,1031.94
2023-02-14T05:22:18.549Z,1031.97
2023-02-14T05:23:16.864Z,1031.80
2023-02-14T05:24:16.914Z,1031.80
2023-02-14T05:25:16.838Z,1031.76
2023-02-14T05:26:16.829Z,1031.81
2023-02-14T05:27:16.861Z,1031.79
2023-02-14T05:28:16.837Z,1031.73
2023-02-14T05:29:16.811Z,1031.82
2023-02-14T05:30:16.913Z,1031.73
2023-02-14T05:31:16.875Z,1031.74
2023-02-14T05:32:16.857Z,1031.69
2023-02-14T05:33:16.756Z,1031.69
2023-02-14T05:34:16.736Z,1031.65
2023-02-14T05:35:16.702Z,1031.66
2023-02-14T05:36:16.711Z,1031.70
2023-02-14T05:37:16.738Z,1031.63
2023-02-14T05:38:16.717Z,1031.65
2023-02-14T05:39:16.659Z,1031.71
2023-02-14T05:40:16.679Z,1031.66
2023-02-14T05:41:16.632Z,1031.71
2023-02-14T05:42:16.655Z,1031.68
2023-02-14T05:43:16.628Z,1031.71
2023-02-14T05:44:16.659Z,1031.70
2023-02-14T05:45:16.580Z,1031.70
2023-02-14T05:46:16.586Z,1031.72
2023-02-14T05:47:16.548Z,1031.66
2023-02-14T05:48:16.576Z,1031.71
2023-02-14T05:49:16.534Z,1031.72
2023-02-14T05:50:16.558Z,1031.74
2023-02-14T05:51:16.518Z,1031.72
2023-02-14T05:52:16.536Z,1031.68
2023-02-14T05:53:16.531Z,1031.66
2023-02-14T05:54:16.481Z,1031.67
2023-02-14T05:55:16.485Z,1031.73
2023-02-14T05:56:16.455Z,1031.68
2023-02-14T05:57:16.428Z,1031.69
2023-02-14T05:58:16.456Z,1031.76
2023-02-14T05:59:16.460Z,1031.62
2023-02-14T06:00:16.431Z,1031.70
2023-02-14T06:01:16.403Z,1031.70
2023-02-14T06:02:16.455Z,1031.73
2023-02-14T06:03:16.379Z,1031.74
2023-02-14T06:04:16.376Z,1031.71
2023-02-14T06:05:16.325Z,1031.73
2023-02-14T06:06:16.352Z,1031.76
2023-02-14T06:07:16.327Z,1031.63
2023-02-14T06:08:16.328Z,1031.74
2023-02-14T06:09:16.343Z,1031.77
2023-02-14T06:10:16.269Z,1031.73
2023-02-14T06:11:16.259Z,1031.74
2023-02-14T06:12:16.317Z,1031.80
2023-02-14T06:13:16.228Z,1031.77
2023-02-14T06:14:16.331Z,1031.78
2023-02-14T06:15:17.000Z,1031.78
2023-02-14T06:16:16.300Z,1031.82
2023-02-14T06:17:16.209Z,1031.85
2023-02-14T06:18:16.171Z,1031.85
2023-02-14T06:19:16.157Z,1031.84
2023-02-14T06:20:16.177Z,1031.80
2023-02-14T06:21:16.176Z,1031.80
2023-02-14T06:22:16.164Z,1031.83
2023-02-14T06:23:16.110Z,1031.85
2023-02-14T06:24:16.136Z,1031.85
2023-02-14T06:25:16.097Z,1031.83
2023-02-14T06:26:16.161Z,1031.87
2023-02-14T06:27:16.061Z,1031.88
2023-02-14T06:28:16.094Z,1031.89
2023-02-14T06:29:16.055Z,1031.87
2023-02-14T06:30:16.137Z,1031.96
2023-02-14T06:31:16.118Z,1031.91
2023-02-14T06:32:16.113Z,1031.93
2023-02-14T06:33:15.979Z,1031.97
2023-02-14T06:34:16.320Z,1031.90
2023-02-14T06:35:15.980Z,1031.93
2023-02-14T06:36:15.984Z,1031.95
2023-02-14T06:37:15.923Z,1031.97
2023-02-14T06:38:15.945Z,1031.94
2023-02-14T06:39:15.928Z,1031.97
2023-02-14T06:40:15.924Z,1031.98
2023-02-14T06:41:15.912Z,1031.99
2023-02-14T06:42:15.881Z,1031.96
2023-02-14T06:43:15.899Z,1031.98
2023-02-14T06:44:15.842Z,1031.96
2023-02-14T06:45:15.836Z,1032.03
2023-02-14T06:46:15.864Z,1031.96
2023-02-14T06:47:15.806Z,1031.99
2023-02-14T06:48:15.776Z,1031.96
2023-02-14T06:49:15.787Z,1031.95
2023-02-14T06:50:15.784Z,1031.98
2023-02-14T06:51:15.768Z,1032.02
2023-02-14T06:52:15.759Z,1031.93
2023-02-14T06:53:15.787Z,1032.02
2023-02-14T06:54:15.713Z,1032.00
2023-02-14T06:55:15.730Z,1032.03
2023-02-14T06:56:15.738Z,1031.95
2023-02-14T06:57:15.676Z,1031.97
2023-02-14T06:58:15.651Z,1031.92
2023-02-14T06:59:15.702Z,1031.93
2023-02-14T07:00:15.630Z,1032.02
2023-02-14T07:01:15.656Z,1031.97
2023-02-14T07:02:15.733Z,1031.98
2023-02-14T07:03:15.611Z,1031.96
2023-02-14T07:04:15.597Z,1032.02
2023-02-14T07:05:15.627Z,1032.02
2023-02-14T07:06:15.560Z,1032.03
2023-02-14T07:07:15.549Z,1032.05
2023-02-14T07:08:15.557Z,1032.02
2023-02-14T07:09:15.576Z,1032.06
2023-02-14T07:10:15.510Z,1032.06
2023-02-14T07:11:15.509Z,1032.06
2023-02-14T07:12:15.470Z,1032.05
2023-02-14T07:13:15.508Z,1032.03
2023-02-14T07:14:15.477Z,1032.02
2023-02-14T07:15:15.545Z,1032.00
2023-02-14T07:16:15.578Z,1032.01
2023-02-14T07:17:15.452Z,1032.00
2023-02-14T07:18:15.436Z,1032.00
2023-02-14T07:19:15.389Z,1031.98
2023-02-14T07:20:15.364Z,1032.00
2023-02-14T07:21:15.388Z,1032.00
2023-02-14T07:22:15.375Z,1031.98
2023-02-14T07:23:15.359Z,1031.98
2023-02-14T07:24:15.329Z,1031.99
2023-02-14T07:25:15.386Z,1031.97
2023-02-14T07:26:15.305Z,1031.93
2023-02-14T07:27:15.305Z,1031.93
2023-02-14T07:28:15.275Z,1032.00
2023-02-14T07:29:15.288Z,1031.98
2023-02-14T07:30:15.290Z,1031.94
2023-02-14T07:31:15.413Z,1031.94
2023-02-14T07:32:15.351Z,1031.98
2023-02-14T07:33:15.251Z,1031.96
2023-02-14T07:34:15.195Z,1032.01
2023-02-14T07:35:15.460Z,1031.99
2023-02-14T07:36:15.202Z,1032.01
2023-02-14T07:37:15.189Z,1031.89
2023-02-14T07:38:15.141Z,1031.94
2023-02-14T07:39:15.147Z,1031.96
2023-02-14T07:40:15.516Z,1031.90
2023-02-14T07:41:15.122Z,1031.95
2023-02-14T07:42:15.094Z,1031.92
2023-02-14T07:43:15.092Z,1031.93
2023-02-14T07:44:15.094Z,1031.92
2023-02-14T07:45:21.584Z,1031.91
2023-02-14T07:46:16.082Z,1031.99
2023-02-14T07:47:15.039Z,1031.94
2023-02-14T07:48:15.001Z,1031.98
2023-02-14T07:49:15.204Z,1031.96
2023-02-14T07:50:15.015Z,1031.93
2023-02-14T07:51:15.031Z,1031.96
2023-02-14T07:52:15.023Z,1031.97
2023-02-14T07:53:15.100Z,1031.97
2023-02-14T07:54:14.970Z,1031.95
2023-02-14T07:55:14.928Z,1031.94
2023-02-14T07:56:14.919Z,1031.91
2023-02-14T07:57:14.930Z,1031.95
2023-02-14T07:58:14.884Z,1031.95
2023-02-14T07:59:14.903Z,1031.88
2023-02-14T08:00:14.860Z,1031.96
2023-02-14T08:01:14.934Z,1031.89
2023-02-14T08:02:14.834Z,1031.94
2023-02-14T08:03:14.835Z,1031.86
2023-02-14T08:04:14.892Z,1031.93
2023-02-14T08:05:15.014Z,1031.92
2023-02-14T08:06:14.794Z,1031.88
2023-02-14T08:07:14.778Z,1031.88
2023-02-14T08:08:14.783Z,1031.88
2023-02-14T08:09:14.756Z,1031.92
2023-02-14T08:10:14.754Z,1031.92
2023-02-14T08:11:14.800Z,1031.94
2023-02-14T08:12:14.708Z,1031.86
2023-02-14T08:13:14.735Z,1031.93
2023-02-14T08:14:14.714Z,1031.98
2023-02-14T08:15:14.708Z,1031.94
2023-02-14T08:16:14.740Z,1031.99
2023-02-14T08:17:14.673Z,1031.97
2023-02-14T08:18:14.640Z,1031.95
2023-02-14T08:19:14.620Z,1031.96
2023-02-14T08:20:14.596Z,1032.05
2023-02-14T08:21:14.626Z,1032.02
2023-02-14T08:22:14.594Z,1031.96
2023-02-14T08:23:14.626Z,1032.08
2023-02-14T08:24:14.539Z,1032.08
2023-02-14T08:25:14.576Z,1031.94
2023-02-14T08:26:14.539Z,1032.01
2023-02-14T08:27:14.546Z,1032.02
2023-02-14T08:28:14.506Z,1032.02
2023-02-14T08:29:16.629Z,1031.99
2023-02-14T08:30:14.568Z,1031.97
2023-02-14T08:31:15.930Z,1032.00
2023-02-14T08:32:14.512Z,1032.03
2023-02-14T08:33:14.501Z,1031.97
2023-02-14T08:34:14.463Z,1031.98
2023-02-14T08:35:14.418Z,1031.99
2023-02-14T08:36:22.286Z,1031.90
2023-02-14T08:37:15.162Z,1031.93
2023-02-14T08:38:14.362Z,1031.96
2023-02-14T08:39:17.040Z,1031.95
2023-02-14T08:40:14.333Z,1031.98
2023-02-14T08:41:14.401Z,1031.93
2023-02-14T08:42:14.310Z,1032.01
2023-02-14T08:43:14.313Z,1032.00
2023-02-14T08:44:14.319Z,1032.00
2023-02-14T08:45:14.313Z,1031.99
2023-02-14T08:46:14.376Z,1031.99
2023-02-14T08:47:14.310Z,1032.00
2023-02-14T08:48:14.273Z,1031.98
2023-02-14T08:49:14.257Z,1032.01
2023-02-14T08:50:14.213Z,1031.99
2023-02-14T08:51:14.269Z,1031.97
2023-02-14T08:52:14.182Z,1031.98
2023-02-14T08:53:14.267Z,1032.06
2023-02-14T08:54:14.187Z,1032.00
2023-02-14T08:55:14.187Z,1032.06
2023-02-14T08:56:14.150Z,1032.01
2023-02-14T08:57:14.185Z,1032.01
2023-02-14T08:58:14.139Z,1032.04
2023-02-14T08:59:14.132Z,1031.96
2023-02-14T09:00:14.151Z,1031.96
2023-02-14T09:01:14.205Z,1031.90
2023-02-14T09:02:14.279Z,1031.90
2023-02-14T09:03:14.084Z,1031.92
2023-02-14T09:04:14.147Z,1031.91
2023-02-14T09:05:14.075Z,1031.97
2023-02-14T09:06:14.016Z,1031.94
2023-02-14T09:07:14.041Z,1031.96
2023-02-14T09:08:14.013Z,1031.93
2023-02-14T09:09:13.999Z,1031.86
2023-02-14T09:10:14.027Z,1031.84
2023-02-14T09:11:13.966Z,1031.88
2023-02-14T09:12:14.008Z,1031.83
2023-02-14T09:13:13.952Z,1031.77
2023-02-14T09:14:13.958Z,1031.78
2023-02-14T09:15:13.960Z,1031.78
2023-02-14T09:16:13.977Z,1031.80
2023-02-14T09:17:13.871Z,1031.76
2023-02-14T09:18:13.896Z,1031.82
2023-02-14T09:19:13.922Z,1031.81
2023-02-14T09:20:13.883Z,1031.80
2023-02-14T09:21:13.876Z,1031.82
2023-02-14T09:22:13.893Z,1031.82
2023-02-14T09:23:13.801Z,1031.78
2023-02-14T09:24:13.810Z,1031.75
2023-02-14T09:25:13.810Z,1031.77
2023-02-14T09:26:13.778Z,1031.77
2023-02-14T09:27:13.838Z,1031.75
2023-02-14T09:28:13.748Z,1031.78
2023-02-14T09:29:13.772Z,1031.76
2023-02-14T09:30:13.821Z,1031.73
2023-02-14T09:31:13.859Z,1031.77
2023-02-14T09:32:13.802Z,1031.74
2023-02-14T09:33:13.683Z,1031.71
2023-02-14T09:34:13.679Z,1031.75
2023-02-14T09:35:13.707Z,1031.76
2023-02-14T09:36:13.648Z,1031.74
2023-02-14T09:37:13.722Z,1031.77
2023-02-14T09:38:13.606Z,1031.76
2023-02-14T09:39:13.636Z,1031.76
2023-02-14T09:40:13.596Z,1031.76
2023-02-14T09:41:13.597Z,1031.75
2023-02-14T09:42:13.595Z,1031.72
2023-02-14T09:43:13.576Z,1031.72
2023-02-14T09:44:13.584Z,1031.70
2023-02-14T09:45:13.553Z,1031.72
2023-02-14T09:46:13.541Z,1031.70
2023-02-14T09:47:13.632Z,1031.70
2023-02-14T09:48:13.538Z,1031.64
2023-02-14T09:49:13.608Z,1031.63
2023-02-14T09:50:13.486Z,1031.66
2023-02-14T09:51:13.485Z,1031.69
2023-02-14T09:52:15.146Z,1031.66
2023-02-14T09:53:13.463Z,1031.69
2023-02-14T09:54:13.426Z,1031.65
2023-02-14T09:55:13.443Z,1031.69
2023-02-14T09:56:14.154Z,1031.64
2023-02-14T09:57:13.413Z,1031.62
2023-02-14T09:58:13.353Z,1031.61
2023-02-14T09:59:13.345Z,1031.57
2023-02-14T10:00:13.355Z,1031.59
2023-02-14T10:01:13.371Z,1031.59
2023-02-14T10:02:13.410Z,1031.57
2023-02-14T10:03:13.317Z,1031.55
2023-02-14T10:04:13.287Z,1031.59
2023-02-14T10:05:13.308Z,1031.47
2023-02-14T10:06:13.251Z,1031.51
2023-02-14T10:07:13.263Z,1031.51
2023-02-14T10:08:13.234Z,1031.48
2023-02-14T10:09:13.295Z,1031.55
2023-02-14T10:10:13.241Z,1031.53
2023-02-14T10:11:13.197Z,1031.55
2023-02-14T10:12:13.241Z,1031.56
2023-02-14T10:13:13.172Z,1031.51
2023-02-14T10:14:13.191Z,1031.54
2023-02-14T10:15:13.163Z,1031.49
2023-02-14T10:16:13.211Z,1031.54
2023-02-14T10:17:13.150Z,1031.52
2023-02-14T10:18:13.150Z,1031.52
2023-02-14T10:19:13.102Z,1031.56
2023-02-14T10:20:13.096Z,1031.55
2023-02-14T10:21:13.114Z,1031.51
2023-02-14T10:22:13.095Z,1031.53
2023-02-14T10:23:13.115Z,1031.50
2023-02-14T10:24:13.119Z,1031.46
2023-02-14T10:25:13.032Z,1031.56
2023-02-14T10:26:13.018Z,1031.49
2023-02-14T10:27:14.700Z,1031.45
2023-02-14T10:28:14.678Z,1031.46
2023-02-14T10:29:12.980Z,1031.49
2023-02-14T10:30:13.010Z,1031.51
2023-02-14T10:31:12.982Z,1031.50
2023-02-14T10:32:12.982Z,1031.47
2023-02-14T10:33:12.937Z,1031.46
2023-02-14T10:34:12.905Z,1031.47
2023-02-14T10:35:12.916Z,1031.48
2023-02-14T10:36:12.877Z,1031.46
2023-02-14T10:37:12.942Z,1031.41
2023-02-14T10:38:12.889Z,1031.38
2023-02-14T10:39:12.873Z,1031.43
2023-02-14T10:40:12.830Z,1031.38
2023-02-14T10:41:12.837Z,1031.41
2023-02-14T10:42:12.830Z,1031.37
2023-02-14T10:43:12.820Z,1031.37
2023-02-14T10:44:12.815Z,1031.38
2023-02-14T10:45:12.762Z,1031.33
2023-02-14T10:46:12.804Z,1031.30
2023-02-14T10:47:12.778Z,1031.23
2023-02-14T10:48:12.737Z,1031.31
2023-02-14T10:49:12.741Z,1031.30
2023-02-14T10:50:12.745Z,1031.25
2023-02-14T10:51:12.745Z,1031.31
2023-02-14T10:52:12.687Z,1031.23
2023-02-14T10:53:12.676Z,1031.21
2023-02-14T10:54:12.646Z,1031.23
2023-02-14T10:55:20.194Z,1031.19
2023-02-14T10:56:13.618Z,1031.15
2023-02-14T10:57:12.657Z,1031.11
2023-02-14T10:58:12.630Z,1031.14
2023-02-14T10:59:12.610Z,1031.06
2023-02-14T11:00:13.613Z,1031.13
2023-02-14T11:01:12.622Z,1031.08
2023-02-14T11:02:12.576Z,1031.07
2023-02-14T11:03:12.654Z,1031.08
2023-02-14T11:04:12.561Z,1031.07
2023-02-14T11:05:12.500Z,1031.11
2023-02-14T11:06:12.497Z,1031.04
2023-02-14T11:07:12.542Z,1030.99
2023-02-14T11:08:12.477Z,1031.01
2023-02-14T11:09:12.467Z,1030.92
2023-02-14T11:10:13.215Z,1030.94
2023-02-14T11:11:12.449Z,1030.95
2023-02-14T11:12:12.484Z,1030.96
2023-02-14T11:13:12.396Z,1030.96
2023-02-14T11:14:12.424Z,1030.89
2023-02-14T11:15:12.408Z,1030.90
2023-02-14T11:16:12.372Z,1030.87
2023-02-14T11:17:12.432Z,1030.85
2023-02-14T11:18:12.392Z,1030.82
2023-02-14T11:19:12.355Z,1030.81
2023-02-14T11:20:12.362Z,1030.86
2023-02-14T11:21:12.362Z,1030.76
2023-02-14T11:22:12.355Z,1030.79
2023-02-14T11:23:12.314Z,1030.82
2023-02-14T11:24:12.264Z,1030.81
2023-02-14T11:25:12.254Z,1030.73
2023-02-14T11:26:12.270Z,1030.75
2023-02-14T11:27:12.243Z,1030.75
2023-02-14T11:28:12.328Z,1030.75
2023-02-14T11:29:12.211Z,1030.70
2023-02-14T11:30:12.258Z,1030.68
2023-02-14T11:31:12.342Z,1030.78
2023-02-14T11:32:12.169Z,1030.76
2023-02-14T11:33:12.185Z,1030.69
2023-02-14T11:34:12.149Z,1030.71
2023-02-14T11:35:12.104Z,1030.75
2023-02-14T11:36:12.134Z,1030.70
2023-02-14T11:37:12.081Z,1030.69
2023-02-14T11:38:12.101Z,1030.75
2023-02-14T11:39:12.191Z,1030.74
2023-02-14T11:40:12.085Z,1030.77
2023-02-14T11:41:12.106Z,1030.66
2023-02-14T11:42:12.034Z,1030.72
2023-02-14T11:43:14.181Z,1030.74
2023-02-14T11:44:12.059Z,1030.76
2023-02-14T11:45:11.969Z,1030.80
2023-02-14T11:46:12.081Z,1030.70
2023-02-14T11:47:11.975Z,1030.66
2023-02-14T11:48:11.955Z,1030.70
2023-02-14T11:49:11.946Z,1030.68
2023-02-14T11:50:20.533Z,1030.65
2023-02-14T11:51:19.897Z,1030.59
2023-02-14T11:52:11.929Z,1030.61
2023-02-14T11:53:12.026Z,1030.56
2023-02-14T11:54:11.901Z,1030.57
2023-02-14T11:55:11.895Z,1030.53
2023-02-14T11:56:11.872Z,1030.48
2023-02-14T11:57:11.850Z,1030.47
2023-02-14T11:58:11.887Z,1030.41
2023-02-14T11:59:11.843Z,1030.38
2023-02-14T12:00:11.796Z,1030.42
2023-02-14T12:01:11.772Z,1030.42
2023-02-14T12:02:11.792Z,1030.34
2023-02-14T12:03:11.778Z,1030.37
2023-02-14T12:04:13.001Z,1030.36
2023-02-14T12:05:11.770Z,1030.35